createdAt,value
2018-12-07T04:01:08.821Z,985.90
2018-12-07T04:02:10.226Z,985.79
2018-12-07T04:03:09.899Z,985.83
2018-12-07T04:04:09.763Z,985.80
2018-12-07T04:05:09.314Z,985.79
2018-12-07T04:06:10.296Z,985.83
2018-12-07T04:07:11.423Z,985.83
2018-12-07T04:08:10.236Z,985.82
2018-12-07T04:09:10.357Z,985.83
2018-12-07T04:10:10.651Z,985.79
2018-12-07T04:11:10.722Z,985.76
2018-12-07T04:12:10.925Z,985.73
2018-12-07T04:13:12.226Z,985.71
2018-12-07T04:14:12.738Z,985.68
2018-12-07T04:15:12.455Z,985.64
2018-12-07T04:16:11.897Z,985.60
2018-12-07T04:17:11.904Z,985.57
2018-12-07T04:18:13.532Z,985.61
2018-12-07T04:19:12.154Z,985.59
2018-12-07T04:20:12.468Z,985.58
2018-12-07T04:21:12.484Z,985.63
2018-12-07T04:22:13.273Z,985.59
2018-12-07T04:26:22.917Z,985.57
2018-12-07T04:27:21.068Z,985.54
2018-12-07T04:28:21.239Z,985.49
2018-12-07T04:29:21.626Z,985.58
2018-12-07T04:30:21.858Z,985.56
2018-12-07T04:31:26.612Z,985.53
2018-12-07T04:32:24.371Z,985.51
2018-12-07T04:33:25.298Z,985.52
2018-12-07T04:34:24.350Z,985.48
2018-12-07T04:35:22.828Z,985.51
2018-12-07T04:36:22.498Z,985.52
2018-12-07T04:37:23.705Z,985.56
2018-12-07T04:38:26.600Z,985.51
2018-12-07T04:39:27.998Z,985.49
2018-12-07T04:40:27.384Z,985.50
2018-12-07T04:41:25.787Z,985.49
2018-12-07T04:42:24.958Z,985.46
2018-12-07T04:43:23.724Z,985.46
2018-12-07T04:44:23.810Z,985.35
2018-12-07T04:45:23.855Z,985.38
2018-12-07T04:46:25.796Z,985.36
2018-12-07T04:47:23.959Z,985.33
2018-12-07T04:48:25.854Z,985.37
2018-12-07T04:49:25.030Z,985.41
2018-12-07T04:50:24.797Z,985.30
2018-12-07T04:51:28.360Z,985.31
2018-12-07T04:52:26.409Z,985.38
2018-12-07T04:53:25.066Z,985.33
2018-12-07T04:55:25.464Z,985.29
2018-12-07T04:56:27.440Z,985.24
2018-12-07T04:57:23.716Z,985.26
2018-12-07T04:58:23.914Z,985.24
2018-12-07T04:59:23.959Z,985.22
2018-12-07T05:00:24.271Z,985.22
2018-12-07T05:01:24.333Z,985.21
2018-12-07T05:02:24.443Z,985.19
2018-12-07T05:03:24.613Z,985.23
2018-12-07T05:04:24.842Z,985.19
2018-12-07T05:05:24.930Z,985.14
2018-12-07T05:06:25.138Z,985.18
2018-12-07T05:07:25.303Z,985.21
2018-12-07T05:08:25.453Z,985.15
2018-12-07T05:09:25.606Z,985.15
2018-12-07T05:10:25.830Z,985.09
2018-12-07T05:11:25.975Z,985.09
2018-12-07T05:12:26.100Z,985.10
2018-12-07T05:13:26.282Z,985.08
2018-12-07T05:14:26.421Z,985.06
2018-12-07T05:15:26.634Z,985.02
2018-12-07T05:16:26.825Z,985.10
2018-12-07T05:17:27.019Z,984.99
2018-12-07T05:18:27.166Z,984.99
2018-12-07T05:19:27.301Z,984.99
2018-12-07T05:20:27.465Z,985.03
2018-12-07T05:21:27.541Z,984.97
2018-12-07T05:22:27.801Z,985.03
2018-12-07T05:23:27.991Z,985.05
2018-12-07T05:24:28.118Z,985.00
2018-12-07T05:25:28.235Z,984.93
2018-12-07T05:26:28.442Z,984.95
2018-12-07T05:27:28.559Z,984.83
2018-12-07T05:28:28.826Z,984.92
2018-12-07T05:29:28.984Z,984.97
2018-12-07T05:30:29.243Z,984.95
2018-12-07T05:31:29.298Z,984.90
2018-12-07T05:32:29.484Z,984.88
2018-12-07T05:33:29.658Z,984.86
2018-12-07T05:34:29.848Z,984.93
2018-12-07T05:35:30.022Z,984.84
2018-12-07T05:36:30.076Z,984.89
2018-12-07T05:37:30.286Z,984.91
2018-12-07T05:38:30.459Z,984.90
2018-12-07T05:39:30.618Z,984.92
2018-12-07T05:40:30.765Z,984.95
2018-12-07T05:41:30.890Z,984.84
2018-12-07T05:42:31.086Z,984.88
2018-12-07T05:43:31.223Z,984.90
2018-12-07T05:44:31.459Z,984.85
2018-12-07T05:45:31.630Z,984.90
2018-12-07T05:46:31.822Z,984.85
2018-12-07T05:47:31.959Z,984.87
2018-12-07T05:48:32.160Z,984.81
2018-12-07T05:49:32.352Z,984.83
2018-12-07T05:50:32.438Z,984.81
2018-12-07T05:51:32.646Z,984.79
2018-12-07T05:52:32.762Z,984.75
2018-12-07T05:53:32.946Z,984.82
2018-12-07T05:54:33.097Z,984.75
2018-12-07T05:55:33.274Z,984.96
2018-12-07T05:56:33.463Z,984.82
2018-12-07T05:57:33.562Z,984.73
2018-12-07T05:58:33.745Z,984.74
2018-12-07T05:59:33.986Z,984.71
2018-12-07T06:00:34.132Z,984.71
2018-12-07T06:01:34.268Z,984.81
2018-12-07T06:02:34.411Z,984.71
2018-12-07T06:03:34.535Z,984.72
2018-12-07T06:04:34.734Z,984.71
2018-12-07T06:05:34.895Z,984.67
2018-12-07T06:06:35.180Z,984.66
2018-12-07T06:07:35.327Z,984.69
2018-12-07T06:08:35.514Z,984.68
2018-12-07T06:09:35.640Z,984.71
2018-12-07T06:10:35.793Z,984.72
2018-12-07T06:11:35.973Z,984.69
2018-12-07T06:12:36.129Z,984.68
2018-12-07T06:13:36.326Z,984.66
2018-12-07T06:14:37.237Z,984.69
2018-12-07T06:15:36.615Z,984.64
2018-12-07T06:16:36.766Z,984.71
2018-12-07T06:17:37.107Z,984.70
2018-12-07T06:18:37.180Z,984.66
2018-12-07T06:19:37.243Z,984.68
2018-12-07T06:20:37.462Z,984.68
2018-12-07T06:21:37.563Z,984.59
2018-12-07T06:22:37.866Z,984.59
2018-12-07T06:23:38.013Z,984.57
2018-12-07T06:24:38.195Z,984.61
2018-12-07T06:25:38.349Z,984.57
2018-12-07T06:26:38.502Z,984.56
2018-12-07T06:27:38.677Z,984.50
2018-12-07T06:28:38.859Z,984.54
2018-12-07T06:29:39.050Z,984.51
2018-12-07T06:30:39.314Z,984.53
2018-12-07T06:31:39.357Z,984.53
2018-12-07T06:32:39.567Z,984.53
2018-12-07T06:33:39.795Z,984.52
2018-12-07T06:34:51.566Z,984.53
2018-12-07T06:35:43.648Z,984.51
2018-12-07T06:36:42.515Z,984.57
2018-12-07T06:37:40.456Z,984.51
2018-12-07T06:38:40.745Z,984.44
2018-12-07T06:39:40.794Z,984.45
2018-12-07T06:40:40.865Z,984.44
2018-12-07T06:41:41.140Z,984.47
2018-12-07T06:42:41.253Z,984.48
2018-12-07T06:43:41.333Z,984.47
2018-12-07T06:44:41.424Z,984.42
2018-12-07T06:45:41.908Z,984.45
2018-12-07T06:46:41.860Z,984.42
2018-12-07T06:47:41.937Z,984.50
2018-12-07T06:48:42.084Z,984.48
2018-12-07T06:49:42.421Z,984.45
2018-12-07T06:50:42.388Z,984.45
2018-12-07T06:51:42.634Z,984.43
2018-12-07T06:52:42.737Z,984.41
2018-12-07T06:53:42.883Z,984.41
2018-12-07T06:54:43.067Z,984.43
2018-12-07T06:55:43.254Z,984.41
2018-12-07T06:56:43.390Z,984.37
2018-12-07T06:57:43.678Z,984.41
2018-12-07T06:58:43.870Z,984.37
2018-12-07T06:59:44.009Z,984.35
2018-12-07T07:00:55.110Z,984.42
2018-12-07T07:01:46.575Z,984.33
2018-12-07T07:02:46.983Z,984.44
2018-12-07T07:03:47.289Z,984.39
2018-12-07T07:04:47.052Z,984.41
2018-12-07T07:05:47.365Z,984.37
2018-12-07T07:06:47.753Z,984.31
2018-12-07T07:07:47.599Z,984.32
2018-12-07T07:08:47.748Z,984.24
2018-12-07T07:09:48.361Z,984.30
2018-12-07T07:10:47.969Z,984.26
2018-12-07T07:11:52.442Z,984.26
2018-12-07T07:12:49.400Z,984.21
2018-12-07T07:13:58.011Z,984.24
2018-12-07T07:14:50.511Z,984.22
2018-12-07T07:16:52.933Z,984.23
2018-12-07T07:17:50.156Z,984.28
2018-12-07T07:18:49.780Z,984.25
2018-12-07T07:19:49.819Z,984.27
2018-12-07T07:20:50.349Z,984.25
2018-12-07T07:21:49.998Z,984.24
2018-12-07T07:22:50.318Z,984.25
2018-12-07T07:23:50.466Z,984.25
2018-12-07T07:24:50.920Z,984.28
2018-12-07T07:25:50.050Z,984.20
2018-12-07T07:26:49.224Z,984.23
2018-12-07T07:29:22.806Z,984.22
2018-12-07T07:30:25.606Z,984.16
2018-12-07T07:31:22.865Z,984.20
2018-12-07T07:32:23.457Z,984.19
2018-12-07T07:33:24.354Z,984.23
2018-12-07T07:34:24.417Z,984.23
2018-12-07T07:37:12.079Z,984.21
2018-12-07T07:38:12.319Z,984.24
2018-12-07T07:39:20.464Z,984.22
2018-12-07T07:42:01.308Z,984.16
2018-12-07T07:44:12.878Z,984.26
2018-12-07T07:45:14.357Z,984.16
2018-12-07T07:46:13.807Z,984.14
2018-12-07T07:47:13.446Z,984.14
2018-12-07T07:48:11.985Z,984.18
2018-12-07T07:49:11.549Z,984.10
2018-12-07T07:50:11.527Z,984.12
2018-12-07T07:51:11.593Z,984.06
2018-12-07T07:52:11.760Z,984.11
2018-12-07T07:53:12.082Z,984.09
2018-12-07T07:54:12.207Z,984.07
2018-12-07T07:55:12.231Z,984.02
2018-12-07T07:56:15.349Z,984.08
2018-12-07T07:57:12.452Z,984.06
2018-12-07T07:58:12.643Z,984.04
2018-12-07T07:59:12.873Z,984.00
2018-12-07T08:00:13.172Z,983.97
2018-12-07T08:01:13.242Z,983.99
2018-12-07T08:02:13.452Z,983.99
2018-12-07T08:03:13.532Z,983.92
2018-12-07T08:04:13.627Z,983.94
2018-12-07T08:05:13.931Z,983.92
2018-12-07T08:06:14.100Z,983.89
2018-12-07T08:07:14.980Z,983.90
2018-12-07T08:08:14.454Z,983.89
2018-12-07T08:09:14.634Z,983.93
2018-12-07T08:10:14.904Z,983.95
2018-12-07T08:11:14.987Z,983.91
2018-12-07T08:12:15.175Z,983.86
2018-12-07T08:13:15.417Z,983.80
2018-12-07T08:14:15.473Z,983.74
2018-12-07T08:15:15.661Z,983.78
2018-12-07T08:16:15.801Z,983.85
2018-12-07T08:17:16.036Z,983.91
2018-12-07T08:18:16.745Z,983.88
2018-12-07T08:19:16.434Z,983.82
2018-12-07T08:20:16.554Z,983.79
2018-12-07T08:21:16.972Z,983.71
2018-12-07T08:22:17.107Z,983.75
2018-12-07T08:23:18.054Z,983.70
2018-12-07T08:24:17.227Z,983.67
2018-12-07T08:25:17.365Z,983.69
2018-12-07T08:26:17.735Z,983.61
2018-12-07T08:27:17.837Z,983.62
2018-12-07T08:28:17.926Z,983.57
2018-12-07T08:29:18.033Z,983.56
2018-12-07T08:30:18.320Z,983.50
2018-12-07T08:31:18.526Z,983.56
2018-12-07T08:32:19.282Z,983.53
2018-12-07T08:33:18.777Z,983.49
2018-12-07T08:34:18.948Z,983.51
2018-12-07T08:35:19.125Z,983.50
2018-12-07T08:36:19.407Z,983.55
2018-12-07T08:37:19.402Z,983.44
2018-12-07T08:38:20.558Z,983.52
2018-12-07T08:39:19.899Z,983.50
2018-12-07T08:40:20.140Z,983.52
2018-12-07T08:41:20.238Z,983.51
2018-12-07T08:42:20.395Z,983.51
2018-12-07T08:43:20.614Z,983.46
2018-12-07T08:44:20.755Z,983.47
2018-12-07T08:45:21.021Z,983.39
2018-12-07T08:46:21.143Z,983.46
2018-12-07T08:47:21.409Z,983.49
2018-12-07T08:48:21.782Z,983.42
2018-12-07T08:49:21.751Z,983.38
2018-12-07T08:50:22.008Z,983.39
2018-12-07T08:51:22.857Z,983.37
2018-12-07T08:52:22.213Z,983.28
2018-12-07T08:53:22.784Z,983.31
2018-12-07T08:54:22.725Z,983.28
2018-12-07T08:55:22.843Z,983.27
2018-12-07T08:56:22.863Z,983.25
2018-12-07T08:57:23.973Z,983.26
2018-12-07T08:58:23.520Z,983.16
2018-12-07T08:59:23.928Z,983.22
2018-12-07T09:00:25.646Z,983.23
2018-12-07T09:01:23.982Z,983.19
2018-12-07T09:02:24.015Z,983.29
2018-12-07T09:03:24.425Z,983.22
2018-12-07T09:04:24.424Z,983.29
2018-12-07T09:05:25.174Z,983.22
2018-12-07T09:06:25.012Z,983.25
2018-12-07T09:07:24.993Z,983.20
2018-12-07T09:08:25.112Z,983.18
2018-12-07T09:09:25.499Z,983.19
2018-12-07T09:10:25.452Z,983.19
2018-12-07T09:11:25.717Z,983.27
2018-12-07T09:12:26.012Z,983.22
2018-12-07T09:13:27.054Z,983.18
2018-12-07T09:14:26.167Z,983.20
2018-12-07T09:15:27.054Z,983.15
2018-12-07T09:16:26.676Z,983.17
2018-12-07T09:17:26.678Z,983.09
2018-12-07T09:18:26.906Z,983.10
2018-12-07T09:19:26.970Z,983.03
2018-12-07T09:20:27.222Z,982.99
2018-12-07T09:21:27.545Z,982.99
2018-12-07T09:22:27.574Z,983.00
2018-12-07T09:23:27.728Z,982.98
2018-12-07T09:24:27.793Z,982.98
2018-12-07T09:25:27.981Z,982.95
2018-12-07T09:26:28.089Z,983.01
2018-12-07T09:27:28.406Z,983.01
2018-12-07T09:28:28.373Z,982.95
2018-12-07T09:29:28.624Z,982.91
2018-12-07T09:30:28.709Z,982.89
2018-12-07T09:31:28.854Z,982.91
2018-12-07T09:32:29.139Z,982.90
2018-12-07T09:33:29.257Z,982.90
2018-12-07T09:34:29.355Z,982.82
2018-12-07T09:35:29.715Z,982.81
2018-12-07T09:36:29.783Z,982.82
2018-12-07T09:37:29.986Z,982.84
2018-12-07T09:38:30.108Z,982.83
2018-12-07T09:39:30.342Z,982.76
2018-12-07T09:40:30.494Z,982.85
2018-12-07T09:41:30.839Z,982.81
2018-12-07T09:42:30.930Z,982.81
2018-12-07T09:43:31.100Z,982.83
2018-12-07T09:44:31.206Z,982.80
2018-12-07T09:45:31.513Z,982.75
2018-12-07T09:46:31.638Z,982.66
2018-12-07T09:47:31.820Z,982.76
2018-12-07T09:48:31.990Z,982.79
2018-12-07T09:49:32.146Z,982.76
2018-12-07T09:50:32.255Z,982.75
2018-12-07T09:51:32.423Z,982.79
2018-12-07T09:52:32.607Z,982.72
2018-12-07T09:53:34.435Z,982.74
2018-12-07T09:54:32.924Z,982.78
2018-12-07T09:55:33.127Z,982.68
2018-12-07T09:56:33.328Z,982.66
2018-12-07T09:57:33.519Z,982.66
2018-12-07T09:58:33.710Z,982.71
2018-12-07T09:59:34.064Z,982.71
2018-12-07T10:00:34.104Z,982.57
2018-12-07T10:01:34.368Z,982.62
2018-12-07T10:02:34.711Z,982.62
2018-12-07T10:03:34.898Z,982.69
2018-12-07T10:04:34.787Z,982.61
2018-12-07T10:05:35.117Z,982.60
2018-12-07T10:06:35.839Z,982.55
2018-12-07T10:07:35.697Z,982.57
2018-12-07T10:08:36.653Z,982.53
2018-12-07T10:09:35.998Z,982.61
2018-12-07T10:10:35.923Z,982.55
2018-12-07T10:11:36.069Z,982.48
2018-12-07T10:12:36.374Z,982.43
2018-12-07T10:13:36.543Z,982.36
2018-12-07T10:14:36.857Z,982.48
2018-12-07T10:15:36.942Z,982.46
2018-12-07T10:16:37.001Z,982.37
2018-12-07T10:17:37.173Z,982.36
2018-12-07T10:18:37.292Z,982.29
2018-12-07T10:19:37.548Z,982.31
2018-12-07T10:20:38.392Z,982.30
2018-12-07T10:21:37.829Z,982.35
2018-12-07T10:22:38.034Z,982.29
2018-12-07T10:23:38.177Z,982.18
2018-12-07T10:24:38.383Z,982.19
2018-12-07T10:25:38.455Z,982.21
2018-12-07T10:26:38.653Z,982.25
2018-12-07T10:27:38.977Z,982.16
2018-12-07T10:28:39.105Z,982.16
2018-12-07T10:29:39.195Z,982.13
2018-12-07T10:30:40.221Z,982.13
2018-12-07T10:31:39.665Z,982.16
2018-12-07T10:32:39.819Z,982.16
2018-12-07T10:33:39.898Z,982.16
2018-12-07T10:34:40.119Z,982.13
2018-12-07T10:35:40.311Z,982.02
2018-12-07T10:36:40.730Z,982.01
2018-12-07T10:37:40.727Z,982.06
2018-12-07T10:38:41.061Z,981.99
2018-12-07T10:39:40.995Z,982.18
2018-12-07T10:40:41.314Z,981.93
2018-12-07T10:41:41.630Z,981.93
2018-12-07T10:42:41.608Z,981.94
2018-12-07T10:43:41.909Z,981.86
2018-12-07T10:44:42.051Z,981.84
2018-12-07T10:45:42.276Z,981.74
2018-12-07T10:46:42.633Z,981.84
2018-12-07T10:47:50.009Z,981.81
2018-12-07T10:48:42.608Z,981.75
2018-12-07T10:49:42.718Z,981.69
2018-12-07T10:50:42.881Z,981.73
2018-12-07T10:51:43.141Z,981.68
2018-12-07T10:52:43.231Z,981.64
2018-12-07T10:53:43.428Z,981.56
2018-12-07T10:54:43.433Z,981.56
2018-12-07T10:55:43.679Z,981.54
2018-12-07T10:56:44.115Z,981.57
2018-12-07T10:57:44.158Z,981.51
2018-12-07T10:58:44.298Z,981.46
2018-12-07T10:59:44.585Z,981.47
2018-12-07T11:00:44.676Z,981.46
2018-12-07T11:01:44.870Z,981.50
2018-12-07T11:02:45.085Z,981.42
2018-12-07T11:03:45.127Z,981.39
2018-12-07T11:04:45.231Z,981.41
2018-12-07T11:05:45.717Z,981.36
2018-12-07T11:06:45.515Z,981.35
2018-12-07T11:07:45.748Z,981.37
2018-12-07T11:08:45.848Z,981.33
2018-12-07T11:09:52.637Z,981.38
2018-12-07T11:12:42.986Z,981.28
2018-12-07T11:13:43.547Z,981.24
2018-12-07T11:14:43.907Z,981.30
2018-12-07T11:15:44.399Z,981.17
2018-12-07T11:16:43.849Z,981.25
2018-12-07T11:17:43.803Z,981.27
2018-12-07T11:18:44.277Z,981.19
2018-12-07T12:26:56.446Z,979.88
2018-12-07T12:32:52.291Z,979.62
2018-12-07T12:33:54.874Z,979.49
2018-12-07T13:06:29.043Z,979.01
2018-12-07T14:33:15.696Z,977.13
2018-12-07T14:34:18.153Z,977.14
2018-12-07T14:35:16.572Z,977.04
2018-12-07T14:36:19.446Z,977.00
2018-12-07T14:37:19.632Z,977.01
2018-12-07T14:39:49.467Z,976.95
2018-12-07T14:40:50.323Z,976.96
2018-12-07T14:47:24.398Z,976.87
2018-12-07T14:48:30.604Z,976.89
2018-12-07T16:10:53.149Z,975.39
2018-12-07T16:11:52.734Z,975.30
2018-12-07T16:12:57.544Z,975.30
2018-12-07T16:14:01.757Z,975.33
2018-12-07T16:28:16.537Z,975.02
2018-12-07T16:29:09.528Z,975.17
2018-12-07T16:32:38.093Z,975.32
2018-12-07T16:36:02.367Z,975.06
2018-12-07T16:37:05.035Z,975.00
2018-12-07T16:38:09.524Z,975.09
2018-12-07T16:39:20.212Z,975.01
2018-12-07T16:43:21.190Z,975.11
2018-12-07T16:50:16.679Z,974.84
2018-12-07T16:51:08.072Z,974.99
2018-12-07T16:53:58.877Z,974.85
2018-12-07T16:57:44.875Z,974.63
2018-12-07T17:00:22.861Z,974.57
2018-12-07T17:02:51.963Z,974.53
2018-12-07T17:04:09.960Z,974.47
2018-12-07T17:07:18.136Z,974.30
2018-12-07T17:08:17.981Z,974.39
2018-12-07T17:09:18.907Z,974.31
2018-12-07T17:10:32.134Z,974.38
2018-12-07T17:11:34.292Z,974.30
2018-12-07T17:12:17.934Z,974.21
2018-12-07T17:28:44.957Z,973.96
2018-12-07T17:31:33.934Z,974.02
2018-12-07T17:35:14.822Z,973.91
2018-12-07T17:36:15.354Z,973.82
2018-12-07T17:37:13.970Z,973.81
2018-12-07T17:38:12.028Z,973.78
2018-12-07T17:39:11.867Z,973.77
2018-12-07T17:40:13.650Z,973.64
2018-12-07T17:41:12.474Z,973.88
2018-12-07T17:42:12.301Z,973.70
2018-12-07T17:43:12.908Z,973.73
2018-12-07T17:47:45.244Z,973.75
2018-12-07T17:48:48.101Z,973.73
2018-12-07T17:50:41.610Z,973.84
2018-12-07T18:02:49.711Z,973.59
2018-12-07T18:03:06.580Z,973.55
2018-12-07T18:07:57.227Z,973.56
2018-12-07T18:08:44.586Z,973.53
2018-12-07T18:09:46.314Z,973.61
2018-12-07T18:10:45.415Z,973.46
2018-12-07T18:16:02.361Z,973.43
2018-12-07T18:17:03.724Z,973.47
2018-12-07T18:18:03.209Z,973.51
2018-12-07T18:19:04.302Z,973.45
2018-12-07T18:20:06.454Z,973.33
2018-12-07T18:21:04.743Z,973.40
2018-12-07T18:22:04.142Z,973.42
2018-12-07T18:23:08.560Z,973.27
2018-12-07T18:24:12.125Z,973.50
2018-12-07T18:29:41.675Z,973.08
2018-12-07T18:30:44.941Z,973.18
2018-12-07T18:31:43.750Z,973.06
2018-12-07T18:32:42.949Z,973.07
2018-12-07T18:33:43.722Z,973.03
2018-12-07T18:35:41.199Z,973.01
2018-12-07T18:36:41.272Z,972.94
2018-12-07T18:37:40.860Z,972.93
2018-12-07T18:38:40.971Z,972.93
2018-12-07T18:39:41.234Z,972.89
2018-12-07T18:40:41.461Z,972.92
2018-12-07T18:41:41.532Z,972.93
2018-12-07T18:42:41.619Z,972.86
2018-12-07T18:43:41.952Z,972.83
2018-12-07T18:44:42.078Z,972.86
2018-12-07T18:45:41.991Z,972.78
2018-12-07T18:46:42.207Z,972.79
2018-12-07T18:47:42.422Z,972.76
2018-12-07T18:48:43.555Z,972.81
2018-12-07T18:49:43.185Z,972.82
2018-12-07T18:50:42.995Z,972.70
2018-12-07T18:51:43.273Z,972.76
2018-12-07T18:52:43.501Z,972.69
2018-12-07T18:53:43.495Z,972.73
2018-12-07T18:54:43.863Z,972.80
2018-12-07T18:55:43.907Z,972.80
2018-12-07T18:56:43.968Z,972.81
2018-12-07T18:57:44.148Z,972.71
2018-12-07T18:58:44.469Z,972.76
2018-12-07T18:59:44.628Z,972.57
2018-12-07T19:00:44.829Z,972.58
2018-12-07T19:01:44.975Z,972.68
2018-12-07T19:02:45.351Z,972.57
2018-12-07T19:03:45.310Z,972.62
2018-12-07T19:04:45.452Z,972.60
2018-12-07T19:05:45.554Z,972.56
2018-12-07T19:06:45.658Z,972.63
2018-12-07T19:07:45.827Z,972.73
2018-12-07T19:08:45.962Z,972.73
2018-12-07T19:09:46.176Z,972.68
2018-12-07T19:10:46.480Z,972.63
2018-12-07T19:11:46.651Z,972.67
2018-12-07T19:12:46.665Z,972.62
2018-12-07T19:13:46.861Z,972.61
2018-12-07T19:14:47.241Z,972.62
2018-12-07T19:15:47.506Z,972.67
2018-12-07T19:16:47.709Z,972.54
2018-12-07T19:17:47.690Z,972.56
2018-12-07T19:18:48.259Z,972.62
2018-12-07T19:19:48.043Z,972.62
2018-12-07T19:20:48.090Z,972.60
2018-12-07T19:21:48.439Z,972.55
2018-12-07T19:22:48.428Z,972.59
2018-12-07T19:23:48.775Z,972.45
2018-12-07T19:24:48.588Z,972.52
2018-12-07T19:25:49.009Z,972.50
2018-12-07T19:26:49.124Z,972.59
2018-12-07T19:27:49.186Z,972.52
2018-12-07T19:28:49.396Z,972.45
2018-12-07T19:29:49.633Z,972.55
2018-12-07T19:30:49.849Z,972.52
2018-12-07T19:31:49.966Z,972.48
2018-12-07T19:32:50.045Z,972.43
2018-12-07T19:33:50.327Z,972.42
2018-12-07T19:34:50.483Z,972.43
2018-12-07T19:35:50.809Z,972.37
2018-12-07T19:36:50.681Z,972.40
2018-12-07T19:37:50.778Z,972.33
2018-12-07T19:38:51.124Z,972.30
2018-12-07T19:39:51.589Z,972.34
2018-12-07T19:40:51.968Z,972.39
2018-12-07T19:41:51.769Z,972.40
2018-12-07T19:42:51.979Z,972.27
2018-12-07T19:43:52.005Z,972.35
2018-12-07T19:44:52.419Z,972.22
2018-12-07T19:45:52.318Z,972.32
2018-12-07T19:46:52.691Z,972.30
2018-12-07T19:47:52.738Z,972.26
2018-12-07T19:48:52.825Z,972.32
2018-12-07T19:49:53.039Z,972.30
2018-12-07T19:50:53.078Z,972.22
2018-12-07T19:51:53.468Z,972.18
2018-12-07T19:52:53.532Z,972.21
2018-12-07T19:53:53.708Z,972.22
2018-12-07T19:54:53.823Z,972.22
2018-12-07T19:55:54.327Z,972.20
2018-12-07T19:56:54.168Z,972.12
2018-12-07T19:57:54.400Z,972.14
2018-12-07T19:58:54.320Z,972.29
2018-12-07T19:59:54.497Z,972.18
2018-12-07T20:00:54.770Z,972.06
2018-12-07T20:01:55.073Z,972.06
2018-12-07T20:02:55.125Z,972.09
2018-12-07T20:03:55.386Z,972.09
2018-12-07T20:04:55.324Z,972.07
2018-12-07T20:05:55.469Z,972.16
2018-12-07T20:06:55.571Z,972.16
2018-12-07T20:07:55.772Z,972.23
2018-12-07T20:08:56.051Z,972.19
2018-12-07T20:09:56.191Z,972.12
2018-12-07T20:10:56.295Z,972.17
2018-12-07T20:11:56.502Z,972.19
2018-12-07T20:12:56.629Z,972.20
2018-12-07T20:13:58.045Z,972.25
2018-12-07T20:14:57.028Z,972.27
2018-12-07T20:15:57.132Z,972.19
2018-12-07T20:16:57.707Z,972.16
2018-12-07T20:17:57.551Z,972.11
2018-12-07T20:18:57.684Z,972.06
2018-12-07T20:19:58.064Z,972.08
2018-12-07T20:20:58.093Z,972.12
2018-12-07T20:21:58.539Z,972.23
2018-12-07T20:22:58.373Z,972.39
2018-12-07T20:23:59.165Z,972.21
2018-12-07T20:24:58.775Z,972.22
2018-12-07T20:25:59.036Z,972.18
2018-12-07T20:26:59.479Z,972.23
2018-12-07T20:27:59.423Z,972.10
2018-12-07T20:28:59.700Z,972.13
2018-12-07T20:29:59.664Z,972.27
2018-12-07T20:31:00.015Z,972.30
2018-12-07T20:32:00.034Z,972.25
2018-12-07T20:33:00.138Z,972.20
2018-12-07T20:34:00.531Z,972.18
2018-12-07T20:35:00.640Z,972.22
2018-12-07T20:36:00.688Z,972.24
2018-12-07T20:37:00.943Z,972.27
2018-12-07T20:38:00.984Z,972.28
2018-12-07T20:39:01.091Z,972.42
2018-12-07T20:40:01.602Z,972.43
2018-12-07T20:41:01.521Z,972.49
2018-12-07T20:42:01.543Z,972.55
2018-12-07T20:43:01.875Z,972.62
2018-12-07T20:44:01.943Z,972.59
2018-12-07T20:45:02.820Z,972.67
2018-12-07T20:46:02.514Z,972.78
2018-12-07T20:47:02.510Z,972.84
2018-12-07T20:48:02.660Z,972.87
2018-12-07T20:49:02.819Z,972.94
2018-12-07T20:50:03.025Z,972.94
2018-12-07T20:51:03.334Z,973.07
2018-12-07T20:52:03.242Z,972.95
2018-12-07T20:53:03.407Z,972.92
2018-12-07T20:54:03.646Z,972.95
2018-12-07T20:55:03.703Z,973.05
2018-12-07T20:56:03.910Z,972.96
2018-12-07T20:57:04.100Z,973.03
2018-12-07T20:58:04.183Z,973.03
2018-12-07T20:59:04.678Z,973.00
2018-12-07T21:00:04.585Z,973.06
2018-12-07T21:01:04.904Z,973.13
2018-12-07T21:02:04.954Z,973.11
2018-12-07T21:03:05.512Z,973.20
2018-12-07T21:04:05.254Z,973.27
2018-12-07T21:05:05.671Z,973.32
2018-12-07T21:06:05.558Z,973.35
2018-12-07T21:07:05.966Z,973.38
2018-12-07T21:08:06.350Z,973.44
2018-12-07T21:09:06.394Z,973.48
2018-12-07T21:10:06.508Z,973.53
2018-12-07T21:11:06.792Z,973.55
2018-12-07T21:12:06.629Z,973.57
2018-12-07T21:13:06.956Z,973.74
2018-12-07T21:14:06.975Z,973.68
2018-12-07T21:15:07.274Z,973.68
2018-12-07T21:16:07.390Z,973.92
2018-12-07T21:17:07.608Z,973.84
2018-12-07T21:18:07.832Z,973.85
2018-12-07T21:19:07.754Z,974.00
2018-12-07T21:20:08.018Z,973.89
2018-12-07T21:21:08.180Z,974.10
2018-12-07T21:22:08.271Z,974.05
2018-12-07T21:23:08.503Z,974.12
2018-12-07T21:24:08.669Z,974.12
2018-12-07T21:25:08.877Z,974.02
2018-12-07T21:26:08.927Z,974.05
2018-12-07T21:27:09.259Z,974.03
2018-12-07T21:28:09.302Z,974.24
2018-12-07T21:29:09.498Z,974.25
2018-12-07T21:30:09.519Z,974.36
2018-12-07T21:31:09.948Z,974.50
2018-12-07T21:32:09.861Z,974.60
2018-12-07T21:33:10.055Z,974.67
2018-12-07T21:34:10.153Z,975.09
2018-12-07T21:35:10.377Z,975.50
2018-12-07T21:36:10.686Z,975.26
2018-12-07T21:37:10.933Z,975.26
2018-12-07T21:38:10.914Z,975.39
2018-12-07T21:39:11.085Z,975.38
2018-12-07T21:40:11.348Z,975.40
2018-12-07T21:41:11.336Z,975.40
2018-12-07T21:42:11.681Z,975.40
2018-12-07T21:43:11.835Z,975.33
2018-12-07T21:44:11.884Z,975.47
2018-12-07T21:45:11.932Z,975.50
2018-12-07T21:46:12.276Z,975.48
2018-12-07T21:47:12.445Z,975.57
2018-12-07T21:48:12.492Z,975.65
2018-12-07T21:49:12.669Z,975.59
2018-12-07T21:50:12.808Z,975.70
2018-12-07T21:51:13.085Z,975.72
2018-12-07T21:52:13.326Z,975.80
2018-12-07T21:53:13.449Z,975.84
2018-12-07T21:54:13.615Z,975.84
2018-12-07T21:55:13.702Z,975.90
2018-12-07T21:56:13.968Z,975.85
2018-12-07T21:57:14.081Z,975.90
2018-12-07T21:58:14.444Z,975.91
2018-12-07T21:59:14.552Z,975.93
2018-12-07T22:00:14.505Z,975.89
2018-12-07T22:01:14.636Z,975.91
2018-12-07T22:02:14.785Z,975.82
2018-12-07T22:03:14.989Z,975.86
2018-12-07T22:04:15.096Z,975.85
2018-12-07T22:05:15.487Z,975.79
2018-12-07T22:06:15.658Z,975.87
2018-12-07T22:07:15.539Z,975.88
2018-12-07T22:08:15.949Z,975.92
2018-12-07T22:09:16.202Z,975.99
2018-12-07T22:10:16.405Z,976.09
2018-12-07T22:11:16.308Z,976.07
2018-12-07T22:12:16.630Z,976.12
2018-12-07T22:13:16.888Z,976.15
2018-12-07T22:14:16.819Z,976.18
2018-12-07T22:15:17.131Z,976.18
2018-12-07T22:16:17.070Z,976.17
2018-12-07T22:17:17.335Z,976.20
2018-12-07T22:18:17.489Z,976.18
2018-12-07T22:19:17.855Z,976.13
2018-12-07T22:20:17.831Z,976.14
2018-12-07T22:21:17.890Z,976.20
2018-12-07T22:22:18.187Z,976.24
2018-12-07T22:23:18.184Z,976.22
2018-12-07T22:24:18.292Z,976.25
2018-12-07T22:25:18.833Z,976.32
2018-12-07T22:26:18.827Z,976.36
2018-12-07T22:27:19.072Z,976.41
2018-12-07T22:28:19.176Z,976.45
2018-12-07T22:29:19.454Z,976.44
2018-12-07T22:30:19.411Z,976.52
2018-12-07T22:31:19.592Z,976.56
2018-12-07T22:32:19.909Z,976.59
2018-12-07T22:33:19.728Z,976.63
2018-12-07T22:34:20.019Z,976.70
2018-12-07T22:35:20.182Z,976.71
2018-12-07T22:36:20.455Z,976.72
2018-12-07T22:37:20.459Z,976.68
2018-12-07T22:38:20.893Z,976.70
2018-12-07T22:39:20.886Z,976.65
2018-12-07T22:40:21.234Z,976.66
2018-12-07T22:41:21.284Z,976.67
2018-12-07T22:42:21.417Z,976.78
2018-12-07T22:43:21.487Z,976.91
2018-12-07T22:44:21.591Z,976.94
2018-12-07T22:45:21.760Z,976.91
2018-12-07T22:46:21.905Z,976.93
2018-12-07T22:47:22.224Z,976.88
2018-12-07T22:48:22.320Z,976.91